sensor_id;sensor_type;location;lat;lon;timestamp;pressure;altitude;pressure_sealevel;temperature;humidity
75598;BME280;64179;51.090;-1.786;2023-01-16T00:01:25;97802.53;;;23.26;56.60
75598;BME280;64179;51.090;-1.786;2023-01-16T00:03:51;97794.53;;;23.21;56.65
75598;BME280;64179;51.090;-1.786;2023-01-16T00:06:19;97795.38;;;23.15;56.57
75598;BME280;64179;51.090;-1.786;2023-01-16T00:08:46;97788.97;;;23.11;56.64
75598;BME280;64179;51.090;-1.786;2023-01-16T00:11:14;97777.34;;;23.07;56.64
75598;BME280;64179;51.090;-1.786;2023-01-16T00:13:40;97763.91;;;23.03;56.58
75598;BME280;64179;51.090;-1.786;2023-01-16T00:16:10;97764.53;;;22.99;56.60
75598;BME280;64179;51.090;-1.786;2023-01-16T00:18:38;97742.88;;;22.92;56.71
75598;BME280;64179;51.090;-1.786;2023-01-16T00:21:06;97737.34;;;22.81;56.77
75598;BME280;64179;51.090;-1.786;2023-01-16T00:23:31;97734.72;;;22.81;56.94
75598;BME280;64179;51.090;-1.786;2023-01-16T00:25:57;97722.50;;;22.75;56.94
75598;BME280;64179;51.090;-1.786;2023-01-16T00:28:25;97715.47;;;22.69;56.88
75598;BME280;64179;51.090;-1.786;2023-01-16T00:30:50;97708.50;;;22.63;56.91
75598;BME280;64179;51.090;-1.786;2023-01-16T00:33:15;97700.50;;;22.58;56.94
75598;BME280;64179;51.090;-1.786;2023-01-16T00:35:43;97688.88;;;22.54;56.98
75598;BME280;64179;51.090;-1.786;2023-01-16T00:38:08;97685.50;;;22.47;56.54
75598;BME280;64179;51.090;-1.786;2023-01-16T00:40:36;97671.69;;;22.40;56.92
75598;BME280;64179;51.090;-1.786;2023-01-16T00:43:01;97669.72;;;22.35;57.13
75598;BME280;64179;51.090;-1.786;2023-01-16T00:45:29;97663.53;;;22.30;57.11
75598;BME280;64179;51.090;-1.786;2023-01-16T00:47:54;97648.13;;;22.22;57.00
75598;BME280;64179;51.090;-1.786;2023-01-16T00:50:20;97651.13;;;22.19;57.15
75598;BME280;64179;51.090;-1.786;2023-01-16T00:52:46;97650.97;;;22.14;57.27
75598;BME280;64179;51.090;-1.786;2023-01-16T00:55:11;97640.16;;;22.10;57.16
75598;BME280;64179;51.090;-1.786;2023-01-16T00:57:36;97631.38;;;22.04;57.26
75598;BME280;64179;51.090;-1.786;2023-01-16T01:00:03;97619.72;;;22.00;57.20
75598;BME280;64179;51.090;-1.786;2023-01-16T01:02:28;97621.16;;;21.96;57.44
75598;BME280;64179;51.090;-1.786;2023-01-16T01:04:54;97601.69;;;21.92;57.14
75598;BME280;64179;51.090;-1.786;2023-01-16T01:07:19;97597.09;;;21.88;57.37
75598;BME280;64179;51.090;-1.786;2023-01-16T01:09:45;97590.47;;;21.85;57.23
75598;BME280;64179;51.090;-1.786;2023-01-16T01:12:15;97589.50;;;21.80;57.17
75598;BME280;64179;51.090;-1.786;2023-01-16T01:14:40;97568.69;;;21.73;57.36
75598;BME280;64179;51.090;-1.786;2023-01-16T01:17:06;97562.88;;;21.71;57.19
75598;BME280;64179;51.090;-1.786;2023-01-16T01:19:37;97556.25;;;21.69;57.17
75598;BME280;64179;51.090;-1.786;2023-01-16T01:22:02;97548.28;;;21.63;57.37
75598;BME280;64179;51.090;-1.786;2023-01-16T01:24:28;97545.28;;;21.60;57.21
75598;BME280;64179;51.090;-1.786;2023-01-16T01:26:53;97542.28;;;21.56;57.26
75598;BME280;64179;51.090;-1.786;2023-01-16T01:29:18;97540.91;;;21.54;57.06
75598;BME280;64179;51.090;-1.786;2023-01-16T01:31:44;97529.31;;;21.50;57.11
75598;BME280;64179;51.090;-1.786;2023-01-16T01:34:09;97532.13;;;21.48;57.15
75598;BME280;64179;51.090;-1.786;2023-01-16T01:36:35;97523.31;;;21.43;57.13
75598;BME280;64179;51.090;-1.786;2023-01-16T01:39:00;97512.28;;;21.41;57.38
75598;BME280;64179;51.090;-1.786;2023-01-16T01:41:26;97509.31;;;21.37;57.07
75598;BME280;64179;51.090;-1.786;2023-01-16T01:43:55;97503.13;;;21.32;57.17
75598;BME280;64179;51.090;-1.786;2023-01-16T01:46:27;97502.97;;;21.27;57.29
75598;BME280;64179;51.090;-1.786;2023-01-16T01:49:07;97489.31;;;21.25;57.33
75598;BME280;64179;51.090;-1.786;2023-01-16T01:51:39;97484.53;;;21.21;57.19
75598;BME280;64179;51.090;-1.786;2023-01-16T01:54:18;97482.31;;;21.18;57.05
75598;BME280;64179;51.090;-1.786;2023-01-16T01:56:59;97472.50;;;21.14;56.97
75598;BME280;64179;51.090;-1.786;2023-01-16T01:59:32;97470.91;;;21.13;57.00
75598;BME280;64179;51.090;-1.786;2023-01-16T02:02:01;97463.72;;;21.08;57.02
75598;BME280;64179;51.090;-1.786;2023-01-16T02:04:31;97468.56;;;21.05;57.03
75598;BME280;64179;51.090;-1.786;2023-01-16T02:07:01;97460.94;;;21.03;56.97
75598;BME280;64179;51.090;-1.786;2023-01-16T02:09:27;97461.38;;;21.00;57.06
75598;BME280;64179;51.090;-1.786;2023-01-16T02:11:57;97458.16;;;20.98;56.90
75598;BME280;64179;51.090;-1.786;2023-01-16T02:14:27;97456.97;;;20.94;57.04
75598;BME280;64179;51.090;-1.786;2023-01-16T02:17:03;97455.78;;;20.90;56.99
75598;BME280;64179;51.090;-1.786;2023-01-16T02:20:23;97446.78;;;20.86;56.89
75598;BME280;64179;51.090;-1.786;2023-01-16T02:29:03;97441.59;;;20.79;56.88
75598;BME280;64179;51.090;-1.786;2023-01-16T02:36:59;97435.84;;;20.71;56.92
75598;BME280;64179;51.090;-1.786;2023-01-16T02:47:15;97437.09;;;20.62;56.54
75598;BME280;64179;51.090;-1.786;2023-01-16T02:49:49;97433.88;;;20.60;56.70
75598;BME280;64179;51.090;-1.786;2023-01-16T02:54:56;97431.91;;;20.55;56.81
75598;BME280;64179;51.090;-1.786;2023-01-16T02:57:32;97431.50;;;20.52;56.80
75598;BME280;64179;51.090;-1.786;2023-01-16T03:00:03;97423.09;;;20.50;56.75
75598;BME280;64179;51.090;-1.786;2023-01-16T03:02:29;97423.50;;;20.47;56.76
75598;BME280;64179;51.090;-1.786;2023-01-16T03:04:54;97428.94;;;20.45;56.54
75598;BME280;64179;51.090;-1.786;2023-01-16T03:19:06;97437.13;;;20.29;56.75
75598;BME280;64179;51.090;-1.786;2023-01-16T03:30:04;97437.56;;;20.19;56.57
75598;BME280;64179;51.090;-1.786;2023-01-16T03:35:15;97429.56;;;20.14;56.38
75598;BME280;64179;51.090;-1.786;2023-01-16T03:38:02;97433.38;;;20.12;56.58
75598;BME280;64179;51.090;-1.786;2023-01-16T03:40:35;97424.16;;;20.09;56.58
75598;BME280;64179;51.090;-1.786;2023-01-16T03:43:08;97421.38;;;20.04;56.91
75598;BME280;64179;51.090;-1.786;2023-01-16T03:45:42;97437.59;;;20.06;56.49
75598;BME280;64179;51.090;-1.786;2023-01-16T03:48:29;97441.41;;;20.04;56.50
75598;BME280;64179;51.090;-1.786;2023-01-16T03:50:59;97445.78;;;20.03;56.35
75598;BME280;64179;51.090;-1.786;2023-01-16T03:53:36;97442.00;;;19.99;56.46
75598;BME280;64179;51.090;-1.786;2023-01-16T03:56:23;97449.22;;;19.97;56.35
75598;BME280;64179;51.090;-1.786;2023-01-16T03:58:52;97448.81;;;19.93;56.56
75598;BME280;64179;51.090;-1.786;2023-01-16T04:01:54;97441.22;;;19.92;56.40
75598;BME280;64179;51.090;-1.786;2023-01-16T04:07:40;97442.00;;;19.86;56.45
75598;BME280;64179;51.090;-1.786;2023-01-16T04:10:16;97442.22;;;19.84;56.48
75598;BME280;64179;51.090;-1.786;2023-01-16T04:12:47;97452.84;;;19.83;56.52
75598;BME280;64179;51.090;-1.786;2023-01-16T04:15:16;97464.22;;;19.82;56.48
75598;BME280;64179;51.090;-1.786;2023-01-16T04:17:42;97466.03;;;19.81;56.39
75598;BME280;64179;51.090;-1.786;2023-01-16T04:20:09;97469.84;;;19.79;56.42
75598;BME280;64179;51.090;-1.786;2023-01-16T04:22:34;97469.22;;;19.77;56.47
75598;BME280;64179;51.090;-1.786;2023-01-16T04:25:06;97466.03;;;19.75;56.54
75598;BME280;64179;51.090;-1.786;2023-01-16T04:27:32;97470.41;;;19.74;56.24
75598;BME280;64179;51.090;-1.786;2023-01-16T04:29:57;97470.03;;;19.71;56.41
75598;BME280;64179;51.090;-1.786;2023-01-16T04:32:25;97465.63;;;19.71;56.33
75598;BME280;64179;51.090;-1.786;2023-01-16T04:34:50;97470.44;;;19.68;56.35
75598;BME280;64179;51.090;-1.786;2023-01-16T04:37:17;97473.03;;;19.68;56.29
75598;BME280;64179;51.090;-1.786;2023-01-16T04:39:43;97476.03;;;19.65;56.30
75598;BME280;64179;51.090;-1.786;2023-01-16T04:42:09;97484.00;;;19.63;56.05
75598;BME280;64179;51.090;-1.786;2023-01-16T04:44:35;97481.63;;;19.62;56.50
75598;BME280;64179;51.090;-1.786;2023-01-16T04:47:00;97489.63;;;19.60;56.35
75598;BME280;64179;51.090;-1.786;2023-01-16T04:49:26;97499.63;;;19.56;56.46
75598;BME280;64179;51.090;-1.786;2023-01-16T04:51:52;97501.00;;;19.52;56.36
75598;BME280;64179;51.090;-1.786;2023-01-16T04:54:22;97508.44;;;19.55;56.39
75598;BME280;64179;51.090;-1.786;2023-01-16T04:56:50;97505.22;;;19.53;56.51
75598;BME280;64179;51.090;-1.786;2023-01-16T04:59:15;97509.81;;;19.51;56.44
75598;BME280;64179;51.090;-1.786;2023-01-16T05:01:41;97518.00;;;19.48;56.56
75598;BME280;64179;51.090;-1.786;2023-01-16T05:04:08;97523.22;;;19.48;56.22
75598;BME280;64179;51.090;-1.786;2023-01-16T05:06:35;97528.41;;;19.48;56.23
75598;BME280;64179;51.090;-1.786;2023-01-16T05:09:01;97523.63;;;19.45;56.61
75598;BME280;64179;51.090;-1.786;2023-01-16T05:11:27;97542.78;;;19.44;56.33
75598;BME280;64179;51.090;-1.786;2023-01-16T05:13:55;97543.16;;;19.41;56.56
75598;BME280;64179;51.090;-1.786;2023-01-16T05:16:20;97538.97;;;19.40;56.40
75598;BME280;64179;51.090;-1.786;2023-01-16T05:18:46;97541.94;;;19.37;56.46
75598;BME280;64179;51.090;-1.786;2023-01-16T05:21:11;97554.31;;;19.35;56.47
75598;BME280;64179;51.090;-1.786;2023-01-16T05:23:37;97560.72;;;19.33;56.37
75598;BME280;64179;51.090;-1.786;2023-01-16T05:26:03;97559.13;;;19.32;56.28
75598;BME280;64179;51.090;-1.786;2023-01-16T05:28:29;97563.91;;;19.28;56.59
75598;BME280;64179;51.090;-1.786;2023-01-16T05:30:54;97571.09;;;19.26;56.48
75598;BME280;64179;51.090;-1.786;2023-01-16T05:33:20;97574.69;;;19.25;56.60
75598;BME280;64179;51.090;-1.786;2023-01-16T05:35:46;97573.06;;;19.24;56.48
75598;BME280;64179;51.090;-1.786;2023-01-16T05:38:14;97579.66;;;19.20;56.38
75598;BME280;64179;51.090;-1.786;2023-01-16T05:40:40;97589.47;;;19.18;56.54
75598;BME280;64179;51.090;-1.786;2023-01-16T05:43:06;97591.44;;;19.16;56.62
75598;BME280;64179;51.090;-1.786;2023-01-16T05:45:34;97585.63;;;19.14;56.71
75598;BME280;64179;51.090;-1.786;2023-01-16T05:48:00;97588.63;;;19.11;56.50
75598;BME280;64179;51.090;-1.786;2023-01-16T05:50:25;97596.59;;;19.09;56.57
75598;BME280;64179;51.090;-1.786;2023-01-16T05:52:50;97609.78;;;19.08;56.43
75598;BME280;64179;51.090;-1.786;2023-01-16T05:55:16;97605.59;;;19.07;56.41
75598;BME280;64179;51.090;-1.786;2023-01-16T05:57:42;97607.78;;;19.03;56.51
75598;BME280;64179;51.090;-1.786;2023-01-16T06:00:10;97617.34;;;19.03;56.48
75598;BME280;64179;51.090;-1.786;2023-01-16T06:02:36;97622.94;;;19.00;56.50
75598;BME280;64179;51.090;-1.786;2023-01-16T06:05:04;97630.34;;;18.96;56.50
75598;BME280;64179;51.090;-1.786;2023-01-16T06:07:29;97627.28;;;18.93;56.66
75598;BME280;64179;51.090;-1.786;2023-01-16T06:09:57;97630.88;;;18.92;56.54
75598;BME280;64179;51.090;-1.786;2023-01-16T06:12:25;97640.91;;;18.95;56.90
75598;BME280;64179;51.090;-1.786;2023-01-16T06:14:50;97640.50;;;18.98;56.90
75598;BME280;64179;51.090;-1.786;2023-01-16T06:17:16;97650.31;;;19.02;56.66
75598;BME280;64179;51.090;-1.786;2023-01-16T06:19:44;97654.34;;;19.05;56.81
75598;BME280;64179;51.090;-1.786;2023-01-16T06:22:11;97654.97;;;19.07;56.74
75598;BME280;64179;51.090;-1.786;2023-01-16T06:24:36;97663.00;;;19.12;57.01
75598;BME280;64179;51.090;-1.786;2023-01-16T06:27:02;97662.63;;;19.22;56.96
75598;BME280;64179;51.090;-1.786;2023-01-16T06:29:27;97665.88;;;19.30;56.93
75598;BME280;64179;51.090;-1.786;2023-01-16T06:31:52;97663.34;;;19.43;56.40
75598;BME280;64179;51.090;-1.786;2023-01-16T06:34:18;97666.63;;;19.58;56.35
75598;BME280;64179;51.090;-1.786;2023-01-16T06:36:46;97674.09;;;19.75;55.77
75598;BME280;64179;51.090;-1.786;2023-01-16T06:39:14;97674.75;;;19.90;55.70
75598;BME280;64179;51.090;-1.786;2023-01-16T06:41:44;97677.56;;;20.02;55.57
75598;BME280;64179;51.090;-1.786;2023-01-16T06:44:12;97679.41;;;20.14;55.42
75598;BME280;64179;51.090;-1.786;2023-01-16T06:46:37;97680.81;;;20.23;55.33
75598;BME280;64179;51.090;-1.786;2023-01-16T06:49:03;97687.50;;;20.32;55.09
75598;BME280;64179;51.090;-1.786;2023-01-16T06:51:29;97686.69;;;20.38;55.01
75598;BME280;64179;51.090;-1.786;2023-01-16T06:53:57;97680.28;;;20.48;54.90
75598;BME280;64179;51.090;-1.786;2023-01-16T06:56:23;97695.72;;;20.56;54.85
75598;BME280;64179;51.090;-1.786;2023-01-16T06:58:49;97688.69;;;20.63;54.53
75598;BME280;64179;51.090;-1.786;2023-01-16T07:01:14;97694.72;;;20.70;54.63
75598;BME280;64179;51.090;-1.786;2023-01-16T07:03:40;97707.56;;;20.78;54.18
75598;BME280;64179;51.090;-1.786;2023-01-16T07:06:05;97713.53;;;20.85;54.53
75598;BME280;64179;51.090;-1.786;2023-01-16T07:08:31;97714.75;;;20.89;54.55
75598;BME280;64179;51.090;-1.786;2023-01-16T07:11:00;97721.75;;;20.95;53.77
75598;BME280;64179;51.090;-1.786;2023-01-16T07:13:26;97725.16;;;21.02;53.96
75598;BME280;64179;51.090;-1.786;2023-01-16T07:15:58;97722.75;;;21.07;53.04
75598;BME280;64179;51.090;-1.786;2023-01-16T07:18:45;97724.78;;;21.18;53.19
75598;BME280;64179;51.090;-1.786;2023-01-16T07:21:29;97735.00;;;21.27;53.09
75598;BME280;64179;51.090;-1.786;2023-01-16T07:24:21;97738.38;;;21.34;53.33
75598;BME280;64179;51.090;-1.786;2023-01-16T07:26:52;97741.78;;;21.41;53.07
75598;BME280;64179;51.090;-1.786;2023-01-16T07:29:19;97746.38;;;21.45;53.08
75598;BME280;64179;51.090;-1.786;2023-01-16T07:31:47;97749.19;;;21.50;53.05
75598;BME280;64179;51.090;-1.786;2023-01-16T07:34:13;97748.34;;;21.56;53.06
75598;BME280;64179;51.090;-1.786;2023-01-16T07:36:38;97759.59;;;21.63;52.81
75598;BME280;64179;51.090;-1.786;2023-01-16T07:39:04;97755.16;;;21.64;52.43
75598;BME280;64179;51.090;-1.786;2023-01-16T07:41:32;97761.97;;;21.72;52.59
75598;BME280;64179;51.090;-1.786;2023-01-16T07:43:59;97765.59;;;21.77;52.47
75598;BME280;64179;51.090;-1.786;2023-01-16T07:46:25;97769.19;;;21.83;52.52
75598;BME280;64179;51.090;-1.786;2023-01-16T07:48:50;97765.94;;;21.87;52.55
75598;BME280;64179;51.090;-1.786;2023-01-16T07:51:17;97777.38;;;21.93;52.56
75598;BME280;64179;51.090;-1.786;2023-01-16T07:53:43;97772.75;;;21.95;52.59
75598;BME280;64179;51.090;-1.786;2023-01-16T07:56:08;97783.97;;;22.02;52.36
75598;BME280;64179;51.090;-1.786;2023-01-16T07:58:34;97785.97;;;22.07;52.31
75598;BME280;64179;51.090;-1.786;2023-01-16T08:00:59;97794.56;;;22.14;51.98
75598;BME280;64179;51.090;-1.786;2023-01-16T08:03:25;97796.75;;;22.17;50.47
75598;BME280;64179;51.090;-1.786;2023-01-16T08:06:00;97807.84;;;22.12;49.43
75598;BME280;64179;51.090;-1.786;2023-01-16T08:08:27;97816.00;;;22.29;47.44
75598;BME280;64179;51.090;-1.786;2023-01-16T08:10:54;97823.59;;;22.37;47.74
75598;BME280;64179;51.090;-1.786;2023-01-16T08:13:20;97819.56;;;22.41;47.99
75598;BME280;64179;51.090;-1.786;2023-01-16T08:15:45;97823.59;;;22.43;48.75
75598;BME280;64179;51.090;-1.786;2023-01-16T08:18:11;97824.97;;;22.46;48.50
75598;BME280;64179;51.090;-1.786;2023-01-16T08:20:40;97835.59;;;22.51;48.78
75598;BME280;64179;51.090;-1.786;2023-01-16T08:23:09;97846.19;;;22.56;48.71
75598;BME280;64179;51.090;-1.786;2023-01-16T08:25:35;97850.44;;;22.57;49.01
75598;BME280;64179;51.090;-1.786;2023-01-16T08:28:00;97849.59;;;22.63;48.95
75598;BME280;64179;51.090;-1.786;2023-01-16T08:30:25;97855.59;;;22.70;49.38
75598;BME280;64179;51.090;-1.786;2023-01-16T08:32:57;97860.00;;;22.76;49.25
75598;BME280;64179;51.090;-1.786;2023-01-16T08:35:23;97864.81;;;22.79;49.42
75598;BME280;64179;51.090;-1.786;2023-01-16T08:37:48;97863.81;;;22.80;49.59
75598;BME280;64179;51.090;-1.786;2023-01-16T08:40:15;97863.59;;;22.82;49.75
75598;BME280;64179;51.090;-1.786;2023-01-16T08:42:40;97869.59;;;22.82;49.74
75598;BME280;64179;51.090;-1.786;2023-01-16T08:45:24;97875.25;;;22.79;49.76
75598;BME280;64179;51.090;-1.786;2023-01-16T08:48:09;97875.25;;;22.79;48.98
75598;BME280;64179;51.090;-1.786;2023-01-16T08:50:54;97879.72;;;22.72;49.50
75598;BME280;64179;51.090;-1.786;2023-01-16T08:53:40;97889.78;;;22.62;49.57
75598;BME280;64179;51.090;-1.786;2023-01-16T08:56:06;97900.25;;;22.62;50.12
75598;BME280;64179;51.090;-1.786;2023-01-16T08:58:31;97902.69;;;22.57;50.01
75598;BME280;64179;51.090;-1.786;2023-01-16T09:00:57;97907.72;;;22.52;50.31
75598;BME280;64179;51.090;-1.786;2023-01-16T09:03:22;97911.78;;;22.48;50.69
75598;BME280;64179;51.090;-1.786;2023-01-16T09:05:48;97912.97;;;22.45;50.75
75598;BME280;64179;51.090;-1.786;2023-01-16T09:08:16;97910.38;;;22.39;50.66
75598;BME280;64179;51.090;-1.786;2023-01-16T09:10:41;97916.03;;;22.36;50.56
75598;BME280;64179;51.090;-1.786;2023-01-16T09:13:26;97928.09;;;22.30;50.89
75598;BME280;64179;51.090;-1.786;2023-01-16T09:16:10;97931.72;;;22.23;50.72
75598;BME280;64179;51.090;-1.786;2023-01-16T09:18:36;97939.38;;;22.18;50.92
75598;BME280;64179;51.090;-1.786;2023-01-16T09:21:02;97943.41;;;22.14;51.06
75598;BME280;64179;51.090;-1.786;2023-01-16T09:23:30;97947.44;;;22.10;51.06
75598;BME280;64179;51.090;-1.786;2023-01-16T09:25:55;97948.81;;;22.05;51.22
75598;BME280;64179;51.090;-1.786;2023-01-16T09:28:20;97953.06;;;22.00;51.28
75598;BME280;64179;51.090;-1.786;2023-01-16T09:30:46;97946.84;;;21.94;51.50
75598;BME280;64179;51.090;-1.786;2023-01-16T09:33:11;97955.06;;;21.91;51.46
75598;BME280;64179;51.090;-1.786;2023-01-16T09:35:37;97961.69;;;21.87;51.38
75598;BME280;64179;51.090;-1.786;2023-01-16T09:38:02;97967.09;;;21.86;51.53
75598;BME280;64179;51.090;-1.786;2023-01-16T09:40:28;97973.94;;;21.80;51.66
75598;BME280;64179;51.090;-1.786;2023-01-16T09:45:42;97976.75;;;21.72;51.90
75598;BME280;64179;51.090;-1.786;2023-01-16T09:48:20;97977.75;;;21.71;50.96
75598;BME280;64179;51.090;-1.786;2023-01-16T09:50:52;97977.56;;;21.66;51.41
75598;BME280;64179;51.090;-1.786;2023-01-16T09:53:27;97981.53;;;21.62;51.55
75598;BME280;64179;51.090;-1.786;2023-01-16T09:56:16;97992.38;;;21.59;51.93
75598;BME280;64179;51.090;-1.786;2023-01-16T09:59:26;97996.19;;;21.56;52.06
75598;BME280;64179;51.090;-1.786;2023-01-16T10:04:36;97997.56;;;21.39;52.46
75598;BME280;64179;51.090;-1.786;2023-01-16T10:09:42;98006.38;;;21.32;50.91
75598;BME280;64179;51.090;-1.786;2023-01-16T10:12:12;98016.81;;;21.32;50.84
75598;BME280;64179;51.090;-1.786;2023-01-16T10:15:36;98024.81;;;21.23;52.12
75598;BME280;64179;51.090;-1.786;2023-01-16T10:23:46;98020.91;;;21.06;54.37
75598;BME280;64179;51.090;-1.786;2023-01-16T10:29:23;98026.66;;;20.95;55.29
75598;BME280;64179;51.090;-1.786;2023-01-16T10:34:27;98041.84;;;20.85;55.77
75598;BME280;64179;51.090;-1.786;2023-01-16T10:36:56;98039.03;;;20.80;55.66
75598;BME280;64179;51.090;-1.786;2023-01-16T10:39:26;98039.81;;;20.74;55.64
75598;BME280;64179;51.090;-1.786;2023-01-16T10:42:00;98042.22;;;20.75;56.04
75598;BME280;64179;51.090;-1.786;2023-01-16T10:47:38;98050.75;;;20.63;56.40
75598;BME280;64179;51.090;-1.786;2023-01-16T10:50:23;98047.91;;;20.58;56.81
75598;BME280;64179;51.090;-1.786;2023-01-16T10:52:52;98048.50;;;20.53;56.58
75598;BME280;64179;51.090;-1.786;2023-01-16T10:55:18;98049.31;;;20.54;56.60
75598;BME280;64179;51.090;-1.786;2023-01-16T10:57:53;98040.88;;;20.52;56.72
75598;BME280;64179;51.090;-1.786;2023-01-16T11:00:23;98045.72;;;20.55;57.55
75598;BME280;64179;51.090;-1.786;2023-01-16T11:03:00;98053.53;;;20.55;58.26
75598;BME280;64179;51.090;-1.786;2023-01-16T11:05:30;98061.34;;;20.55;58.48
75598;BME280;64179;51.090;-1.786;2023-01-16T11:10:34;98071.00;;;20.61;59.24
75598;BME280;64179;51.090;-1.786;2023-01-16T11:13:02;98064.22;;;20.66;59.21
75598;BME280;64179;51.090;-1.786;2023-01-16T11:16:49;98068.28;;;20.75;57.79
75598;BME280;64179;51.090;-1.786;2023-01-16T11:19:26;98064.94;;;20.88;58.49
75598;BME280;64179;51.090;-1.786;2023-01-16T11:22:00;98064.19;;;20.94;58.78
75598;BME280;64179;51.090;-1.786;2023-01-16T11:24:33;98070.81;;;21.03;58.57
75598;BME280;64179;51.090;-1.786;2023-01-16T11:27:07;98063.22;;;21.08;59.16
75598;BME280;64179;51.090;-1.786;2023-01-16T11:29:37;98066.50;;;21.17;58.87
75598;BME280;64179;51.090;-1.786;2023-01-16T11:32:10;98064.94;;;21.23;59.26
75598;BME280;64179;51.090;-1.786;2023-01-16T11:34:42;98064.13;;;21.29;58.95
75598;BME280;64179;51.090;-1.786;2023-01-16T11:37:11;98057.13;;;21.36;59.03
75598;BME280;64179;51.090;-1.786;2023-01-16T11:39:41;98059.97;;;21.41;59.01
75598;BME280;64179;51.090;-1.786;2023-01-16T11:42:12;98061.78;;;21.47;58.92
75598;BME280;64179;51.090;-1.786;2023-01-16T11:44:58;98066.22;;;21.53;58.79
75598;BME280;64179;51.090;-1.786;2023-01-16T11:47:44;98062.00;;;21.58;59.06
75598;BME280;64179;51.090;-1.786;2023-01-16T11:50:28;98057.81;;;21.64;58.73
75598;BME280;64179;51.090;-1.786;2023-01-16T11:52:58;98052.19;;;21.67;58.01
75598;BME280;64179;51.090;-1.786;2023-01-16T11:55:37;98049.81;;;21.72;58.05
75598;BME280;64179;51.090;-1.786;2023-01-16T12:04:22;98062.25;;;21.77;58.06
75598;BME280;64179;51.090;-1.786;2023-01-16T12:09:42;98064.25;;;21.75;58.27
75598;BME280;64179;51.090;-1.786;2023-01-16T12:12:10;98063.06;;;21.77;56.41
75598;BME280;64179;51.090;-1.786;2023-01-16T12:15:04;98064.88;;;21.77;57.00
75598;BME280;64179;51.090;-1.786;2023-01-16T12:20:52;98070.47;;;21.74;57.05
75598;BME280;64179;51.090;-1.786;2023-01-16T12:23:28;98068.28;;;21.71;57.04
75598;BME280;64179;51.090;-1.786;2023-01-16T12:26:19;98064.06;;;21.70;55.75
75598;BME280;64179;51.090;-1.786;2023-01-16T12:28:55;98068.66;;;21.68;56.13
75598;BME280;64179;51.090;-1.786;2023-01-16T12:41:54;98067.84;;;21.54;55.94
75598;BME280;64179;51.090;-1.786;2023-01-16T12:44:53;98070.00;;;21.50;55.84
75598;BME280;64179;51.090;-1.786;2023-01-16T12:47:43;98063.41;;;21.48;55.84
75598;BME280;64179;51.090;-1.786;2023-01-16T12:59:06;98064.16;;;21.35;55.66
75598;BME280;64179;51.090;-1.786;2023-01-16T13:01:41;98056.53;;;21.34;55.61
75598;BME280;64179;51.090;-1.786;2023-01-16T13:06:55;98061.94;;;21.26;55.82
75598;BME280;64179;51.090;-1.786;2023-01-16T13:09:28;98056.09;;;21.23;55.98
75598;BME280;64179;51.090;-1.786;2023-01-16T13:12:05;98061.72;;;21.20;55.94
75598;BME280;64179;51.090;-1.786;2023-01-16T13:14:56;98056.09;;;21.17;55.96
75598;BME280;64179;51.090;-1.786;2023-01-16T13:17:45;98066.06;;;21.13;56.18
75598;BME280;64179;51.090;-1.786;2023-01-16T13:20:15;98065.47;;;21.11;56.06
75598;BME280;64179;51.090;-1.786;2023-01-16T13:22:49;98060.00;;;21.06;56.24
75598;BME280;64179;51.090;-1.786;2023-01-16T13:25:43;98062.38;;;21.01;56.22
75598;BME280;64179;51.090;-1.786;2023-01-16T13:28:39;98066.38;;;20.97;56.21
75598;BME280;64179;51.090;-1.786;2023-01-16T13:34:04;98069.16;;;20.89;55.95
75598;BME280;64179;51.090;-1.786;2023-01-16T13:42:07;98056.25;;;20.74;56.42
75598;BME280;64179;51.090;-1.786;2023-01-16T13:44:37;98062.66;;;20.72;56.23
75598;BME280;64179;51.090;-1.786;2023-01-16T13:47:26;98055.41;;;20.67;56.21
75598;BME280;64179;51.090;-1.786;2023-01-16T13:50:03;98061.19;;;20.63;56.31
75598;BME280;64179;51.090;-1.786;2023-01-16T13:52:29;98064.97;;;20.60;56.24
75598;BME280;64179;51.090;-1.786;2023-01-16T13:54:58;98063.75;;;20.56;56.19
75598;BME280;64179;51.090;-1.786;2023-01-16T13:57:26;98062.50;;;20.52;56.21
75598;BME280;64179;51.090;-1.786;2023-01-16T14:00:11;98074.50;;;20.47;56.16
75598;BME280;64179;51.090;-1.786;2023-01-16T14:08:26;98090.88;;;20.40;56.17
75598;BME280;64179;51.090;-1.786;2023-01-16T14:11:32;98096.66;;;20.36;56.03
75598;BME280;64179;51.090;-1.786;2023-01-16T14:17:04;98101.78;;;20.29;56.06
75598;BME280;64179;51.090;-1.786;2023-01-16T14:19:50;98096.94;;;20.26;56.13
75598;BME280;64179;51.090;-1.786;2023-01-16T14:22:21;98095.53;;;20.24;56.22
75598;BME280;64179;51.090;-1.786;2023-01-16T14:24:55;98096.91;;;20.20;55.89
75598;BME280;64179;51.090;-1.786;2023-01-16T14:27:27;98094.47;;;20.18;56.21
75598;BME280;64179;51.090;-1.786;2023-01-16T14:30:03;98089.66;;;20.15;56.16
75598;BME280;64179;51.090;-1.786;2023-01-16T14:32:36;98087.44;;;20.12;55.88
75598;BME280;64179;51.090;-1.786;2023-01-16T14:35:10;98089.41;;;20.10;56.23
75598;BME280;64179;51.090;-1.786;2023-01-16T14:37:41;98088.78;;;20.08;55.98
75598;BME280;64179;51.090;-1.786;2023-01-16T14:45:35;98095.75;;;20.01;55.97
75598;BME280;64179;51.090;-1.786;2023-01-16T14:54:04;98095.28;;;19.97;55.78
75598;BME280;64179;51.090;-1.786;2023-01-16T14:57:06;98096.03;;;19.91;55.57
75598;BME280;64179;51.090;-1.786;2023-01-16T15:00:02;98097.22;;;19.89;55.66
75598;BME280;64179;51.090;-1.786;2023-01-16T15:02:37;98094.38;;;19.84;55.73
75598;BME280;64179;51.090;-1.786;2023-01-16T15:07:54;98109.34;;;19.82;55.74
75598;BME280;64179;51.090;-1.786;2023-01-16T15:10:28;98111.16;;;19.81;56.02
75598;BME280;64179;51.090;-1.786;2023-01-16T15:15:42;98107.13;;;19.79;54.82
75598;BME280;64179;51.090;-1.786;2023-01-16T15:18:15;98109.91;;;19.77;51.11
75598;BME280;64179;51.090;-1.786;2023-01-16T15:21:02;98119.13;;;19.80;51.25
75598;BME280;64179;51.090;-1.786;2023-01-16T15:23:47;98113.94;;;19.80;50.56
75598;BME280;64179;51.090;-1.786;2023-01-16T15:29:37;98115.28;;;19.76;49.92
75598;BME280;64179;51.090;-1.786;2023-01-16T15:32:15;98118.31;;;19.79;49.44
75598;BME280;64179;51.090;-1.786;2023-01-16T15:34:47;98121.72;;;19.80;49.02
75598;BME280;64179;51.090;-1.786;2023-01-16T15:37:23;98124.34;;;19.80;49.35